Timeline UpdatesTrip UpdatesNews PostsPvt PostsTravel TipsAdmin PostsConv PostsFollowed PostsChat RequestsBlog PostsPNR Posts

Disclaimer
Search
 
 
Wed Jul 30, 2014 08:26:31 ISTHomeTrainsΣChainsAtlasPNRForumGalleryNewsFAQTripsMembersLoginFeedback
No Recent News for this Train
Other Trains in the News **new
Latest...
.. .. ..
Fri Aug 02, 2013 (02:01PM)
⇐ Return Journey: Train# 51285

51286/Nagpur-Bhusaval Passenger (UnReserved)

Oct 27 2013 (1:56AM)
Change Departure Station:
Change Arrival Station:
Post a Train Travel TipPost a Train Travel Tip **new
Post a Comment/Question/Picture/VideoPost a Comment/Question/Picture/Video
Pantry/Catering
✕ NO Pantry Car
✕ NO Catering
RSA - Rake Sharing
Rake/Coach Composition
Loco
KYN WCAM 3
News    PNR    Forum    Time-Table    Availability    Fare Chart    Map    Arr/Dep History    Trips    Gallery    ΣChains    X/O    Timeline    
Travel Time: 8h 25m    35 halts    Distance: 316 km    Avg Speed: 37 km/hr
Type: Passenger
Zone: CR/Central
Departs @ 06:30 (Avg 37m late)
Platform# ???
SMTWTFS
Sewagram Junction/SEGM 
Arrives @ 14:55 (Avg 29m late)
Platform# ???
SMTWTFS
Bhusaval Junction/BSL 

35 halts. 35 intermediate Stations between Sewagram Junction and Bhusaval Junction

Hide intermediate Stations  Show Old Time-Table

#CodeStation NameX/OArrivesAvgDepartsAvgHaltPFDay#KmSpeedElevZoneAddress
1NGPNagpur Junction (8)  -04:50+271-76.220314mCRNagpur 440001, Maharashtra
1.1MIBNagpur Moti Bagh (1)  04:52-04:52-  1-75.4 20309mCRNagpur, Maharashtra
2AJNIAjni (3)  04:59+1105:00+161m--1-73.256310mCRNagpur 440003, Maharashtra
3KRIKhapri (2)  05:10+1705:11+201m--1-63.956312mCRNagpur, Maharashtra
4GMGGumgaon (2)X  05:18+2005:19+251m--1-57.358302mCRNagpur, Maharashtra
5BTBRButi Bori (4)  05:28+2605:29+301m--1-48.659269mCRButi Bori, Maharashtra
6BOKBorkhedi  05:37+3305:38+421m--1-40.869268mCRWardha, Maharashtra
7SNISindi (2)  05:48+4405:49+501m--1-29.353258mCRWardha, Maharashtra
8TGPTuljapur (2)  05:58+4905:59+511m--1-21.467259mCRTuljapur, Maharashtra
9SLORSeloo RoadX  06:08+5506:09+571m--1-11.334256mCRMSH3, Maharashtra
9.1VADRWarudXO  06:23-06:23-  1-3.5 34261mCRSewagram, Maharashtra
10SEGM»Sewagram Junction (5)»X  06:29+3706:30+371m--10.011279mCRWardha, Maharashtra
11WRWardha JunctionX  06:45+4106:50+445m--12.752289mCRWardha 442001, Maharashtra
12DAEDahegaonX  07:06+4907:07+541m--116.460275mCRMumbai Hwy, Maharashtra
13KAOTKaotha  07:16+5407:17+541m--125.550283mCRPulgaon, Maharashtra
14PLOPulgaon Junction (3)X  07:25+4607:26+461m2132.258273mCRPulgaon, Maharashtra
15TLNTalniX  07:36+5407:37+551m--141.962277mCRPulgaon, Maharashtra
16DMNDhamangaon (2)X  07:47+5407:48+581m--152.261300mCRDhamangaon, Maharashtra
17DIPDiporeX  07:58+5907:59+1:001m--162.455322mCRState Highway 243, Maharashtra
18CNDChandur (2)X  08:06+1:0008:07+1:031m--168.856331mCRAmravati Distt, Maharashtra
19MLRMalkhed  08:21+1:0308:22+1:041m--181.948342mCRLalkhed, Maharashtra
20TMTTimtalaX  08:31+1:1108:32+1:121m--189.222350mCRAmravati, Maharashtra
21BDBadnera Junction (4)X  08:55+4509:00+485m1197.664335mCRBadnera (Amravati) 444701, Maharashtra
22TKITakliX  09:08+1:0309:09+1:041m--1106.166331mCRBadnera, Maharashtra
23KUMKuramX  09:16+1:0409:17+1:051m--1113.857308mCRAkola, Maharashtra
24MNDAMandura  09:23-09:24-1m--1119.577303mCRMurtizapur, Maharashtra
25MANAMana (2)X  09:30+1:0509:31+1:071m21127.261294mCRMANA dist Akola, Maharashtra
26MZRMurtizapur (3)X  09:43+1:0709:45+1:112m--1139.469303mCRMurtajapur, Maharashtra
27KTPKatepurna  09:54+1:1309:55+1:131m--1149.775292mCRNational Highway 6, Maharashtra
28BGNBorgaon  10:02+1:1410:03+1:161m--1158.593304mCRAkola, Maharashtra
29YADYeulkhed  10:10+1:2010:11+1:201m--1169.348297mCRAkola, Maharashtra
30AKAkola Junction (7)  10:20+5310:25+525m11176.673284mCRAkola-444001, Maharashtra
31GAOGaigaon (2)  10:35+1:2210:36+1:251m--1188.858301mCRAkola, Maharashtra
32PSParas (2)X  10:44+1:2610:45+1:301m--1196.580282mCRAkola, Maharashtra
33NGZS K Nagjihari (2)  10:52+1:3210:53+1:331m--1205.943274mCRDist. Akola, Maharashtra
34SEGShegaon (2)O  11:04+1:2411:05+1:251m--1213.831281mCRShegaon 444203, Maharashtra
35JMJalamb Junction (3)  11:29+1:2311:30+1:241m--1226.182259mCRJalamb, Maharashtra
36NNNandura  11:39+1:2611:40+1:261m--1238.349267mCRNandura, Maharashtra
37KJLKhumgaon Burti  11:49+1:2711:50+1:271m--1245.842253mCRBuldhana, Maharashtra
38BISBiswa BridgeO  11:59+1:2612:00+1:261m--1252.141252mCRBuldhana, Maharashtra
39WADOWadodaXO  12:09+1:2512:10+1:251m--1258.225252mCRNH 6, Maharashtra
40MKUMalkapur (2)  12:29+1:0412:30+1:061m--1266.257252mCRMalkapur, Maharashtra
41KMKDKhamkhed  12:39+1:2012:40+1:201m--1274.944252mCRMalkapur, Maharashtra
42KLHDKolhadi  12:49+1:0012:50+1:001m--1281.429278mCRMalkapur, Maharashtra
43BDWDBodwadX  12:59+1:1113:00+1:151m--1285.851294mCRBodwad, Maharashtra
44ACGAchegaonX  13:14+1:1513:15+1:161m--1297.813234mCRVarangaon, Maharashtra
45VNAVarangaon  13:44+5213:45+1:001m--1303.811220mCRVarangaon, Maharashtra
46BSL•Bhusaval Junction (8)•  14:55+29---1316.1-208mCRBhusaval 425201, Maharashtra
Scroll to Top
Scroll to Bottom